sensor_id;sensor_type;location;lat;lon;timestamp;P1;durP1;ratioP1;P2;durP2;ratioP2
53915;SDS011;39827;49.652;18.770;2023-06-04T00:01:03;116.18;;;108.50;;
53915;SDS011;39827;49.652;18.770;2023-06-04T00:03:29;118.50;;;109.32;;
53915;SDS011;39827;49.652;18.770;2023-06-04T00:05:55;83.50;;;77.90;;
53915;SDS011;39827;49.652;18.770;2023-06-04T00:08:20;158.50;;;147.88;;
53915;SDS011;39827;49.652;18.770;2023-06-04T00:10:46;118.13;;;110.10;;
53915;SDS011;39827;49.652;18.770;2023-06-04T00:13:12;140.82;;;131.48;;
53915;SDS011;39827;49.652;18.770;2023-06-04T00:15:38;111.00;;;103.22;;
53915;SDS011;39827;49.652;18.770;2023-06-04T00:18:03;109.80;;;102.35;;
53915;SDS011;39827;49.652;18.770;2023-06-04T00:20:29;94.45;;;88.28;;
53915;SDS011;39827;49.652;18.770;2023-06-04T00:22:54;82.20;;;76.72;;
53915;SDS011;39827;49.652;18.770;2023-06-04T00:25:20;69.20;;;64.68;;
53915;SDS011;39827;49.652;18.770;2023-06-04T00:27:45;80.90;;;75.35;;
53915;SDS011;39827;49.652;18.770;2023-06-04T00:30:11;72.13;;;67.05;;
53915;SDS011;39827;49.652;18.770;2023-06-04T00:32:37;70.68;;;66.07;;
53915;SDS011;39827;49.652;18.770;2023-06-04T00:35:02;70.72;;;65.95;;
53915;SDS011;39827;49.652;18.770;2023-06-04T00:37:28;106.97;;;100.28;;
53915;SDS011;39827;49.652;18.770;2023-06-04T00:39:54;126.18;;;118.38;;
53915;SDS011;39827;49.652;18.770;2023-06-04T00:42:19;52.90;;;49.15;;
53915;SDS011;39827;49.652;18.770;2023-06-04T00:44:45;80.93;;;75.80;;
53915;SDS011;39827;49.652;18.770;2023-06-04T00:47:11;93.95;;;88.00;;
53915;SDS011;39827;49.652;18.770;2023-06-04T00:49:37;147.00;;;138.15;;
53915;SDS011;39827;49.652;18.770;2023-06-04T00:52:03;132.13;;;124.03;;
53915;SDS011;39827;49.652;18.770;2023-06-04T00:54:30;152.80;;;143.50;;
53915;SDS011;39827;49.652;18.770;2023-06-04T00:56:57;103.53;;;97.20;;
53915;SDS011;39827;49.652;18.770;2023-06-04T00:59:23;130.65;;;122.75;;
53915;SDS011;39827;49.652;18.770;2023-06-04T01:07:21;128.32;;;120.15;;
53915;SDS011;39827;49.652;18.770;2023-06-04T01:09:48;147.40;;;138.38;;
53915;SDS011;39827;49.652;18.770;2023-06-04T01:12:14;69.13;;;64.90;;
53915;SDS011;39827;49.652;18.770;2023-06-04T01:14:40;115.93;;;108.60;;
53915;SDS011;39827;49.652;18.770;2023-06-04T01:17:07;164.48;;;154.23;;
53915;SDS011;39827;49.652;18.770;2023-06-04T01:25:32;140.10;;;131.40;;
53915;SDS011;39827;49.652;18.770;2023-06-04T01:27:58;113.68;;;106.43;;
53915;SDS011;39827;49.652;18.770;2023-06-04T01:30:25;141.73;;;133.05;;
53915;SDS011;39827;49.652;18.770;2023-06-04T01:32:56;110.95;;;103.78;;
53915;SDS011;39827;49.652;18.770;2023-06-04T01:35:22;64.97;;;60.88;;
53915;SDS011;39827;49.652;18.770;2023-06-04T01:37:48;58.25;;;54.38;;
53915;SDS011;39827;49.652;18.770;2023-06-04T01:40:14;73.50;;;68.43;;
53915;SDS011;39827;49.652;18.770;2023-06-04T01:42:41;76.93;;;72.30;;
53915;SDS011;39827;49.652;18.770;2023-06-04T01:45:07;83.68;;;78.75;;
53915;SDS011;39827;49.652;18.770;2023-06-04T01:47:34;83.97;;;78.97;;
53915;SDS011;39827;49.652;18.770;2023-06-04T01:50:00;70.40;;;66.07;;
53915;SDS011;39827;49.652;18.770;2023-06-04T01:52:26;56.72;;;53.08;;
53915;SDS011;39827;49.652;18.770;2023-06-04T01:54:51;72.55;;;67.95;;
53915;SDS011;39827;49.652;18.770;2023-06-04T01:57:20;82.85;;;77.63;;
53915;SDS011;39827;49.652;18.770;2023-06-04T01:59:47;76.63;;;71.82;;
53915;SDS011;39827;49.652;18.770;2023-06-04T02:02:13;79.38;;;74.05;;
53915;SDS011;39827;49.652;18.770;2023-06-04T02:04:39;57.17;;;53.40;;
53915;SDS011;39827;49.652;18.770;2023-06-04T02:07:09;81.97;;;76.93;;
53915;SDS011;39827;49.652;18.770;2023-06-04T02:09:36;75.72;;;70.97;;
53915;SDS011;39827;49.652;18.770;2023-06-04T02:12:03;72.82;;;68.38;;
53915;SDS011;39827;49.652;18.770;2023-06-04T02:14:28;145.50;;;136.07;;
53915;SDS011;39827;49.652;18.770;2023-06-04T02:16:54;85.70;;;80.53;;
53915;SDS011;39827;49.652;18.770;2023-06-04T02:19:23;111.68;;;104.70;;
53915;SDS011;39827;49.652;18.770;2023-06-04T02:21:50;80.22;;;75.43;;
53915;SDS011;39827;49.652;18.770;2023-06-04T02:24:15;118.65;;;111.22;;
53915;SDS011;39827;49.652;18.770;2023-06-04T02:26:41;136.32;;;127.20;;
53915;SDS011;39827;49.652;18.770;2023-06-04T02:29:06;193.23;;;180.68;;
53915;SDS011;39827;49.652;18.770;2023-06-04T02:31:32;39.30;;;36.85;;
53915;SDS011;39827;49.652;18.770;2023-06-04T02:33:57;60.65;;;56.90;;
53915;SDS011;39827;49.652;18.770;2023-06-04T02:36:22;47.97;;;44.97;;
53915;SDS011;39827;49.652;18.770;2023-06-04T02:38:48;50.72;;;47.38;;
53915;SDS011;39827;49.652;18.770;2023-06-04T02:41:13;61.65;;;58.00;;
53915;SDS011;39827;49.652;18.770;2023-06-04T02:43:38;67.63;;;63.63;;
53915;SDS011;39827;49.652;18.770;2023-06-04T02:46:04;120.93;;;113.75;;
53915;SDS011;39827;49.652;18.770;2023-06-04T02:48:31;96.82;;;91.18;;
53915;SDS011;39827;49.652;18.770;2023-06-04T02:50:56;98.25;;;92.32;;
53915;SDS011;39827;49.652;18.770;2023-06-04T02:53:22;117.93;;;111.22;;
53915;SDS011;39827;49.652;18.770;2023-06-04T02:55:48;80.90;;;76.07;;
53915;SDS011;39827;49.652;18.770;2023-06-04T02:58:15;101.55;;;95.57;;
53915;SDS011;39827;49.652;18.770;2023-06-04T03:00:41;94.18;;;88.78;;
53915;SDS011;39827;49.652;18.770;2023-06-04T03:03:07;98.85;;;92.95;;
53915;SDS011;39827;49.652;18.770;2023-06-04T03:05:32;115.70;;;108.63;;
53915;SDS011;39827;49.652;18.770;2023-06-04T03:07:58;105.00;;;98.80;;
53915;SDS011;39827;49.652;18.770;2023-06-04T03:10:24;62.80;;;59.08;;
53915;SDS011;39827;49.652;18.770;2023-06-04T03:12:50;61.33;;;57.67;;
53915;SDS011;39827;49.652;18.770;2023-06-04T03:15:15;64.75;;;60.92;;
53915;SDS011;39827;49.652;18.770;2023-06-04T03:17:41;87.18;;;82.25;;
53915;SDS011;39827;49.652;18.770;2023-06-04T03:20:07;129.10;;;121.20;;
53915;SDS011;39827;49.652;18.770;2023-06-04T03:22:34;111.40;;;104.78;;
53915;SDS011;39827;49.652;18.770;2023-06-04T03:25:00;91.43;;;86.03;;
53915;SDS011;39827;49.652;18.770;2023-06-04T03:27:26;102.70;;;96.50;;
53915;SDS011;39827;49.652;18.770;2023-06-04T03:29:51;81.10;;;76.40;;
53915;SDS011;39827;49.652;18.770;2023-06-04T03:32:17;59.13;;;55.55;;
53915;SDS011;39827;49.652;18.770;2023-06-04T03:34:43;106.22;;;100.05;;
53915;SDS011;39827;49.652;18.770;2023-06-04T03:37:08;111.15;;;104.72;;
53915;SDS011;39827;49.652;18.770;2023-06-04T03:39:34;95.85;;;90.28;;
53915;SDS011;39827;49.652;18.770;2023-06-04T03:42:00;109.63;;;103.35;;
53915;SDS011;39827;49.652;18.770;2023-06-04T03:44:25;72.88;;;68.57;;
53915;SDS011;39827;49.652;18.770;2023-06-04T03:46:51;103.95;;;97.50;;
53915;SDS011;39827;49.652;18.770;2023-06-04T03:49:16;103.78;;;97.80;;
53915;SDS011;39827;49.652;18.770;2023-06-04T03:51:42;106.78;;;100.65;;
53915;SDS011;39827;49.652;18.770;2023-06-04T03:54:08;72.30;;;67.78;;
53915;SDS011;39827;49.652;18.770;2023-06-04T03:56:33;71.88;;;67.43;;
53915;SDS011;39827;49.652;18.770;2023-06-04T03:58:59;74.75;;;70.05;;
53915;SDS011;39827;49.652;18.770;2023-06-04T04:01:25;72.00;;;67.45;;
53915;SDS011;39827;49.652;18.770;2023-06-04T04:03:51;69.57;;;65.20;;
53915;SDS011;39827;49.652;18.770;2023-06-04T04:06:18;72.72;;;68.28;;
53915;SDS011;39827;49.652;18.770;2023-06-04T04:08:44;75.95;;;71.22;;
53915;SDS011;39827;49.652;18.770;2023-06-04T04:11:10;70.13;;;65.82;;
53915;SDS011;39827;49.652;18.770;2023-06-04T04:13:36;89.40;;;83.82;;
53915;SDS011;39827;49.652;18.770;2023-06-04T04:16:02;66.75;;;62.25;;
53915;SDS011;39827;49.652;18.770;2023-06-04T04:18:28;81.18;;;76.18;;
53915;SDS011;39827;49.652;18.770;2023-06-04T04:20:57;67.10;;;62.83;;
53915;SDS011;39827;49.652;18.770;2023-06-04T04:23:22;65.00;;;60.90;;
53915;SDS011;39827;49.652;18.770;2023-06-04T04:25:48;65.45;;;61.25;;
53915;SDS011;39827;49.652;18.770;2023-06-04T04:28:14;77.05;;;72.18;;
53915;SDS011;39827;49.652;18.770;2023-06-04T04:30:42;81.75;;;76.65;;
53915;SDS011;39827;49.652;18.770;2023-06-04T04:33:07;69.07;;;64.68;;
53915;SDS011;39827;49.652;18.770;2023-06-04T04:35:33;80.95;;;75.82;;
53915;SDS011;39827;49.652;18.770;2023-06-04T04:37:59;63.95;;;59.75;;
53915;SDS011;39827;49.652;18.770;2023-06-04T04:40:28;65.97;;;61.83;;
53915;SDS011;39827;49.652;18.770;2023-06-04T04:42:53;67.90;;;63.70;;
53915;SDS011;39827;49.652;18.770;2023-06-04T04:45:19;69.38;;;65.00;;
53915;SDS011;39827;49.652;18.770;2023-06-04T04:47:45;76.18;;;71.25;;
53915;SDS011;39827;49.652;18.770;2023-06-04T04:50:11;126.90;;;118.90;;
53915;SDS011;39827;49.652;18.770;2023-06-04T04:52:37;169.15;;;158.43;;
53915;SDS011;39827;49.652;18.770;2023-06-04T04:55:02;157.07;;;147.52;;
53915;SDS011;39827;49.652;18.770;2023-06-04T04:57:28;164.07;;;154.10;;
53915;SDS011;39827;49.652;18.770;2023-06-04T04:59:54;162.07;;;152.18;;
53915;SDS011;39827;49.652;18.770;2023-06-04T05:02:19;176.25;;;164.48;;
53915;SDS011;39827;49.652;18.770;2023-06-04T05:04:45;399.23;;;371.75;;
53915;SDS011;39827;49.652;18.770;2023-06-04T05:07:10;161.30;;;150.93;;
53915;SDS011;39827;49.652;18.770;2023-06-04T05:09:36;518.15;;;480.90;;
53915;SDS011;39827;49.652;18.770;2023-06-04T05:12:01;616.17;;;571.38;;
53915;SDS011;39827;49.652;18.770;2023-06-04T05:14:26;645.00;;;597.72;;
53915;SDS011;39827;49.652;18.770;2023-06-04T05:16:53;680.38;;;630.17;;
53915;SDS011;39827;49.652;18.770;2023-06-04T05:19:21;669.45;;;619.92;;
53915;SDS011;39827;49.652;18.770;2023-06-04T05:21:48;700.30;;;647.90;;
53915;SDS011;39827;49.652;18.770;2023-06-04T05:24:14;716.05;;;662.15;;
53915;SDS011;39827;49.652;18.770;2023-06-04T05:26:39;692.28;;;639.17;;
53915;SDS011;39827;49.652;18.770;2023-06-04T05:29:05;681.45;;;628.60;;
53915;SDS011;39827;49.652;18.770;2023-06-04T05:31:31;716.28;;;661.08;;
53915;SDS011;39827;49.652;18.770;2023-06-04T05:34:00;746.47;;;688.42;;
53915;SDS011;39827;49.652;18.770;2023-06-04T05:36:27;683.55;;;630.80;;
53915;SDS011;39827;49.652;18.770;2023-06-04T05:38:54;702.70;;;648.50;;
53915;SDS011;39827;49.652;18.770;2023-06-04T05:41:24;715.72;;;661.10;;
53915;SDS011;39827;49.652;18.770;2023-06-04T05:43:50;733.45;;;678.10;;
53915;SDS011;39827;49.652;18.770;2023-06-04T05:46:16;723.40;;;669.03;;
53915;SDS011;39827;49.652;18.770;2023-06-04T05:48:42;724.80;;;670.33;;
53915;SDS011;39827;49.652;18.770;2023-06-04T05:51:08;742.88;;;687.53;;
53915;SDS011;39827;49.652;18.770;2023-06-04T05:53:33;735.53;;;681.00;;
53915;SDS011;39827;49.652;18.770;2023-06-04T05:55:58;749.60;;;693.72;;
53915;SDS011;39827;49.652;18.770;2023-06-04T05:58:24;757.72;;;701.17;;
53915;SDS011;39827;49.652;18.770;2023-06-04T06:00:50;747.83;;;692.70;;
53915;SDS011;39827;49.652;18.770;2023-06-04T06:03:16;759.13;;;702.58;;
53915;SDS011;39827;49.652;18.770;2023-06-04T06:05:41;766.17;;;708.85;;
53915;SDS011;39827;49.652;18.770;2023-06-04T06:08:07;769.95;;;712.28;;
53915;SDS011;39827;49.652;18.770;2023-06-04T06:10:33;785.65;;;725.72;;
53915;SDS011;39827;49.652;18.770;2023-06-04T06:12:59;792.28;;;731.92;;
53915;SDS011;39827;49.652;18.770;2023-06-04T06:15:25;804.00;;;742.15;;
53915;SDS011;39827;49.652;18.770;2023-06-04T06:17:51;816.80;;;753.78;;
53915;SDS011;39827;49.652;18.770;2023-06-04T06:20:17;830.83;;;766.08;;
53915;SDS011;39827;49.652;18.770;2023-06-04T06:22:43;840.85;;;775.38;;
53915;SDS011;39827;49.652;18.770;2023-06-04T06:25:09;853.42;;;787.05;;
53915;SDS011;39827;49.652;18.770;2023-06-04T06:27:38;874.17;;;804.70;;
53915;SDS011;39827;49.652;18.770;2023-06-04T06:30:04;883.58;;;811.65;;
53915;SDS011;39827;49.652;18.770;2023-06-04T06:32:31;523.58;;;485.70;;
53915;SDS011;39827;49.652;18.770;2023-06-04T06:34:56;495.67;;;460.40;;
53915;SDS011;39827;49.652;18.770;2023-06-04T06:37:22;492.08;;;456.85;;
53915;SDS011;39827;49.652;18.770;2023-06-04T06:39:47;499.25;;;463.33;;
53915;SDS011;39827;49.652;18.770;2023-06-04T06:42:12;507.50;;;470.70;;
53915;SDS011;39827;49.652;18.770;2023-06-04T06:44:38;535.75;;;496.10;;
53915;SDS011;39827;49.652;18.770;2023-06-04T06:47:03;542.72;;;502.25;;
53915;SDS011;39827;49.652;18.770;2023-06-04T06:49:29;517.45;;;479.08;;
53915;SDS011;39827;49.652;18.770;2023-06-04T06:51:54;513.78;;;476.08;;
53915;SDS011;39827;49.652;18.770;2023-06-04T06:54:20;525.25;;;486.73;;
53915;SDS011;39827;49.652;18.770;2023-06-04T06:56:47;522.03;;;483.45;;
53915;SDS011;39827;49.652;18.770;2023-06-04T06:59:14;532.92;;;493.30;;
53915;SDS011;39827;49.652;18.770;2023-06-04T07:01:40;551.10;;;510.13;;
53915;SDS011;39827;49.652;18.770;2023-06-04T07:04:05;564.95;;;522.72;;
53915;SDS011;39827;49.652;18.770;2023-06-04T07:06:31;554.78;;;513.25;;
53915;SDS011;39827;49.652;18.770;2023-06-04T07:08:58;568.65;;;526.17;;
53915;SDS011;39827;49.652;18.770;2023-06-04T07:11:23;548.05;;;507.55;;
53915;SDS011;39827;49.652;18.770;2023-06-04T07:13:50;563.03;;;521.22;;
53915;SDS011;39827;49.652;18.770;2023-06-04T07:16:16;554.55;;;513.28;;
53915;SDS011;39827;49.652;18.770;2023-06-04T07:18:45;563.08;;;521.50;;
53915;SDS011;39827;49.652;18.770;2023-06-04T07:21:12;579.92;;;537.35;;
53915;SDS011;39827;49.652;18.770;2023-06-04T07:23:38;595.40;;;551.38;;
53915;SDS011;39827;49.652;18.770;2023-06-04T07:26:03;595.85;;;551.72;;
53915;SDS011;39827;49.652;18.770;2023-06-04T07:28:29;602.75;;;558.45;;
53915;SDS011;39827;49.652;18.770;2023-06-04T07:30:54;570.55;;;528.25;;
53915;SDS011;39827;49.652;18.770;2023-06-04T07:33:20;592.28;;;548.45;;
53915;SDS011;39827;49.652;18.770;2023-06-04T07:35:45;609.22;;;564.38;;
53915;SDS011;39827;49.652;18.770;2023-06-04T07:38:11;607.45;;;562.80;;
53915;SDS011;39827;49.652;18.770;2023-06-04T07:40:36;589.75;;;546.22;;
53915;SDS011;39827;49.652;18.770;2023-06-04T07:43:01;592.33;;;548.58;;
53915;SDS011;39827;49.652;18.770;2023-06-04T07:45:27;579.67;;;536.88;;
53915;SDS011;39827;49.652;18.770;2023-06-04T07:47:54;587.17;;;543.78;;
53915;SDS011;39827;49.652;18.770;2023-06-04T07:50:20;593.65;;;549.75;;
53915;SDS011;39827;49.652;18.770;2023-06-04T07:52:46;588.95;;;545.15;;
53915;SDS011;39827;49.652;18.770;2023-06-04T07:55:11;571.40;;;528.47;;
53915;SDS011;39827;49.652;18.770;2023-06-04T07:57:37;591.20;;;547.08;;
53915;SDS011;39827;49.652;18.770;2023-06-04T08:00:02;596.85;;;552.42;;
53915;SDS011;39827;49.652;18.770;2023-06-04T08:02:29;567.00;;;524.33;;
53915;SDS011;39827;49.652;18.770;2023-06-04T08:04:55;593.90;;;549.08;;
53915;SDS011;39827;49.652;18.770;2023-06-04T08:07:21;572.58;;;528.90;;
53915;SDS011;39827;49.652;18.770;2023-06-04T08:09:46;587.38;;;541.90;;
53915;SDS011;39827;49.652;18.770;2023-06-04T08:12:12;569.58;;;525.65;;
53915;SDS011;39827;49.652;18.770;2023-06-04T08:14:37;578.63;;;533.60;;
53915;SDS011;39827;49.652;18.770;2023-06-04T08:17:03;595.35;;;549.35;;
53915;SDS011;39827;49.652;18.770;2023-06-04T08:19:28;595.72;;;549.92;;
53915;SDS011;39827;49.652;18.770;2023-06-04T08:21:54;580.85;;;535.47;;
53915;SDS011;39827;49.652;18.770;2023-06-04T08:24:20;534.45;;;493.50;;
53915;SDS011;39827;49.652;18.770;2023-06-04T08:26:46;544.53;;;501.98;;
53915;SDS011;39827;49.652;18.770;2023-06-04T08:29:12;551.10;;;508.70;;
53915;SDS011;39827;49.652;18.770;2023-06-04T08:31:37;553.47;;;510.80;;
53915;SDS011;39827;49.652;18.770;2023-06-04T08:34:04;545.30;;;503.20;;
53915;SDS011;39827;49.652;18.770;2023-06-04T08:36:30;534.75;;;494.23;;
53915;SDS011;39827;49.652;18.770;2023-06-04T08:38:57;552.97;;;511.25;;
53915;SDS011;39827;49.652;18.770;2023-06-04T08:43:48;532.13;;;491.98;;
53915;SDS011;39827;49.652;18.770;2023-06-04T08:46:15;527.17;;;487.83;;
53915;SDS011;39827;49.652;18.770;2023-06-04T08:48:44;516.40;;;478.95;;
53915;SDS011;39827;49.652;18.770;2023-06-04T08:51:09;539.40;;;499.02;;
53915;SDS011;39827;49.652;18.770;2023-06-04T08:53:36;500.15;;;465.02;;
53915;SDS011;39827;49.652;18.770;2023-06-04T08:56:02;543.53;;;503.25;;
53915;SDS011;39827;49.652;18.770;2023-06-04T08:58:31;536.65;;;498.65;;
53915;SDS011;39827;49.652;18.770;2023-06-04T09:00:58;516.47;;;479.58;;
53915;SDS011;39827;49.652;18.770;2023-06-04T09:03:25;531.72;;;494.15;;
53915;SDS011;39827;49.652;18.770;2023-06-04T09:05:51;542.58;;;503.98;;
53915;SDS011;39827;49.652;18.770;2023-06-04T09:08:17;563.35;;;523.20;;
53915;SDS011;39827;49.652;18.770;2023-06-04T09:10:46;529.13;;;492.55;;
53915;SDS011;39827;49.652;18.770;2023-06-04T09:13:16;529.15;;;492.30;;
53915;SDS011;39827;49.652;18.770;2023-06-04T09:15:43;497.55;;;463.63;;
53915;SDS011;39827;49.652;18.770;2023-06-04T09:18:09;527.08;;;490.55;;
53915;SDS011;39827;49.652;18.770;2023-06-04T09:20:34;544.40;;;505.95;;
53915;SDS011;39827;49.652;18.770;2023-06-04T09:23:00;474.80;;;442.20;;
53915;SDS011;39827;49.652;18.770;2023-06-04T09:25:26;507.50;;;471.98;;
53915;SDS011;39827;49.652;18.770;2023-06-04T09:27:53;502.05;;;467.95;;
53915;SDS011;39827;49.652;18.770;2023-06-04T09:30:20;511.98;;;476.65;;
53915;SDS011;39827;49.652;18.770;2023-06-04T09:32:47;515.97;;;479.55;;
53915;SDS011;39827;49.652;18.770;2023-06-04T09:35:16;540.90;;;503.35;;
53915;SDS011;39827;49.652;18.770;2023-06-04T09:37:50;551.25;;;512.33;;
53915;SDS011;39827;49.652;18.770;2023-06-04T09:40:17;497.05;;;463.90;;
53915;SDS011;39827;49.652;18.770;2023-06-04T09:42:43;440.65;;;412.25;;
53915;SDS011;39827;49.652;18.770;2023-06-04T09:45:10;509.45;;;475.45;;
53915;SDS011;39827;49.652;18.770;2023-06-04T09:47:43;518.55;;;483.52;;
53915;SDS011;39827;49.652;18.770;2023-06-04T09:50:11;540.70;;;502.90;;
53915;SDS011;39827;49.652;18.770;2023-06-04T09:52:37;480.63;;;448.60;;
53915;SDS011;39827;49.652;18.770;2023-06-04T09:55:14;423.80;;;396.50;;
53915;SDS011;39827;49.652;18.770;2023-06-04T09:57:44;507.55;;;473.02;;
53915;SDS011;39827;49.652;18.770;2023-06-04T10:00:17;500.45;;;466.42;;
53915;SDS011;39827;49.652;18.770;2023-06-04T10:02:44;515.70;;;480.00;;
53915;SDS011;39827;49.652;18.770;2023-06-04T10:05:13;474.05;;;442.00;;
53915;SDS011;39827;49.652;18.770;2023-06-04T10:07:40;463.50;;;433.30;;
53915;SDS011;39827;49.652;18.770;2023-06-04T10:10:08;465.55;;;434.98;;
53915;SDS011;39827;49.652;18.770;2023-06-04T10:12:40;450.17;;;420.17;;
53915;SDS011;39827;49.652;18.770;2023-06-04T10:15:13;442.10;;;413.60;;
53915;SDS011;39827;49.652;18.770;2023-06-04T10:17:38;404.05;;;377.77;;
53915;SDS011;39827;49.652;18.770;2023-06-04T10:20:06;433.70;;;405.30;;
53915;SDS011;39827;49.652;18.770;2023-06-04T10:22:33;454.88;;;424.48;;
53915;SDS011;39827;49.652;18.770;2023-06-04T10:25:00;429.35;;;400.58;;
53915;SDS011;39827;49.652;18.770;2023-06-04T10:27:26;407.02;;;380.92;;
53915;SDS011;39827;49.652;18.770;2023-06-04T10:29:51;424.30;;;396.65;;
53915;SDS011;39827;49.652;18.770;2023-06-04T10:32:18;441.85;;;412.52;;
53915;SDS011;39827;49.652;18.770;2023-06-04T10:34:46;415.27;;;387.75;;
53915;SDS011;39827;49.652;18.770;2023-06-04T10:37:18;449.90;;;419.33;;
53915;SDS011;39827;49.652;18.770;2023-06-04T10:39:53;438.65;;;409.75;;
53915;SDS011;39827;49.652;18.770;2023-06-04T10:42:20;449.05;;;418.50;;
53915;SDS011;39827;49.652;18.770;2023-06-04T10:44:53;402.67;;;376.38;;
53915;SDS011;39827;49.652;18.770;2023-06-04T10:47:23;451.42;;;421.00;;
53915;SDS011;39827;49.652;18.770;2023-06-04T10:49:50;435.08;;;405.52;;
53915;SDS011;39827;49.652;18.770;2023-06-04T10:52:16;449.02;;;418.50;;
53915;SDS011;39827;49.652;18.770;2023-06-04T10:54:42;450.60;;;419.52;;
53915;SDS011;39827;49.652;18.770;2023-06-04T10:57:13;411.67;;;384.50;;
53915;SDS011;39827;49.652;18.770;2023-06-04T10:59:40;438.42;;;408.75;;
53915;SDS011;39827;49.652;18.770;2023-06-04T11:02:09;442.50;;;413.15;;
53915;SDS011;39827;49.652;18.770;2023-06-04T11:04:35;449.95;;;419.38;;
53915;SDS011;39827;49.652;18.770;2023-06-04T11:07:04;424.80;;;396.58;;
53915;SDS011;39827;49.652;18.770;2023-06-04T11:09:37;434.40;;;405.50;;
53915;SDS011;39827;49.652;18.770;2023-06-04T11:12:12;422.48;;;394.20;;
53915;SDS011;39827;49.652;18.770;2023-06-04T11:14:37;410.40;;;382.65;;
53915;SDS011;39827;49.652;18.770;2023-06-04T11:17:12;408.13;;;381.35;;
53915;SDS011;39827;49.652;18.770;2023-06-04T11:19:39;399.38;;;373.98;;
53915;SDS011;39827;49.652;18.770;2023-06-04T11:22:05;397.08;;;371.73;;
53915;SDS011;39827;49.652;18.770;2023-06-04T11:24:32;436.00;;;407.00;;
53915;SDS011;39827;49.652;18.770;2023-06-04T11:26:58;433.35;;;404.33;;
53915;SDS011;39827;49.652;18.770;2023-06-04T11:29:27;446.02;;;415.90;;
53915;SDS011;39827;49.652;18.770;2023-06-04T11:31:53;408.65;;;382.17;;
53915;SDS011;39827;49.652;18.770;2023-06-04T11:34:25;446.17;;;416.17;;
53915;SDS011;39827;49.652;18.770;2023-06-04T11:36:54;450.33;;;419.85;;
53915;SDS011;39827;49.652;18.770;2023-06-04T11:39:21;425.50;;;397.00;;
53915;SDS011;39827;49.652;18.770;2023-06-04T11:41:47;419.83;;;392.60;;
53915;SDS011;39827;49.652;18.770;2023-06-04T11:44:17;424.85;;;396.60;;
53915;SDS011;39827;49.652;18.770;2023-06-04T11:46:43;439.08;;;409.95;;
53915;SDS011;39827;49.652;18.770;2023-06-04T11:49:16;466.65;;;435.20;;
53915;SDS011;39827;49.652;18.770;2023-06-04T11:51:46;478.98;;;446.23;;
53915;SDS011;39827;49.652;18.770;2023-06-04T11:54:16;461.52;;;430.27;;
53915;SDS011;39827;49.652;18.770;2023-06-04T11:56:42;446.20;;;416.05;;
53915;SDS011;39827;49.652;18.770;2023-06-04T11:59:12;463.38;;;431.98;;
53915;SDS011;39827;49.652;18.770;2023-06-04T12:01:40;409.67;;;382.75;;
53915;SDS011;39827;49.652;18.770;2023-06-04T12:04:13;473.20;;;441.35;;
53915;SDS011;39827;49.652;18.770;2023-06-04T12:06:38;450.83;;;421.00;;
53915;SDS011;39827;49.652;18.770;2023-06-04T12:09:04;485.35;;;452.80;;
53915;SDS011;39827;49.652;18.770;2023-06-04T12:13:56;480.58;;;447.65;;
53915;SDS011;39827;49.652;18.770;2023-06-04T12:16:28;553.95;;;514.00;;
53915;SDS011;39827;49.652;18.770;2023-06-04T12:19:09;492.33;;;458.45;;
53915;SDS011;39827;49.652;18.770;2023-06-04T12:21:36;537.17;;;498.80;;
53915;SDS011;39827;49.652;18.770;2023-06-04T12:24:12;550.00;;;510.40;;
53915;SDS011;39827;49.652;18.770;2023-06-04T12:26:39;520.95;;;484.67;;
53915;SDS011;39827;49.652;18.770;2023-06-04T12:29:15;516.10;;;480.27;;
53915;SDS011;39827;49.652;18.770;2023-06-04T12:31:44;505.02;;;470.88;;
53915;SDS011;39827;49.652;18.770;2023-06-04T12:34:11;517.03;;;480.92;;
53915;SDS011;39827;49.652;18.770;2023-06-04T12:36:39;533.38;;;495.80;;
53915;SDS011;39827;49.652;18.770;2023-06-04T12:39:05;524.33;;;487.23;;
53915;SDS011;39827;49.652;18.770;2023-06-04T12:41:32;516.30;;;481.05;;
53915;SDS011;39827;49.652;18.770;2023-06-04T12:44:00;582.10;;;539.50;;
53915;SDS011;39827;49.652;18.770;2023-06-04T12:46:26;523.22;;;486.70;;
53915;SDS011;39827;49.652;18.770;2023-06-04T12:48:52;504.40;;;469.52;;
53915;SDS011;39827;49.652;18.770;2023-06-04T12:51:19;499.15;;;464.77;;
53915;SDS011;39827;49.652;18.770;2023-06-04T12:53:46;534.30;;;496.48;;
53915;SDS011;39827;49.652;18.770;2023-06-04T12:56:12;514.72;;;478.88;;
53915;SDS011;39827;49.652;18.770;2023-06-04T12:58:38;450.63;;;420.15;;
53915;SDS011;39827;49.652;18.770;2023-06-04T13:01:03;528.53;;;491.85;;
53915;SDS011;39827;49.652;18.770;2023-06-04T13:03:31;486.17;;;453.48;;
53915;SDS011;39827;49.652;18.770;2023-06-04T13:05:57;490.20;;;456.15;;
53915;SDS011;39827;49.652;18.770;2023-06-04T13:08:23;505.73;;;470.25;;
53915;SDS011;39827;49.652;18.770;2023-06-04T13:10:49;437.05;;;408.42;;
53915;SDS011;39827;49.652;18.770;2023-06-04T13:13:16;493.52;;;459.63;;
53915;SDS011;39827;49.652;18.770;2023-06-04T13:15:42;532.00;;;494.52;;
53915;SDS011;39827;49.652;18.770;2023-06-04T13:18:08;488.52;;;455.05;;
53915;SDS011;39827;49.652;18.770;2023-06-04T13:20:35;503.63;;;468.95;;
53915;SDS011;39827;49.652;18.770;2023-06-04T13:23:00;517.30;;;481.85;;
53915;SDS011;39827;49.652;18.770;2023-06-04T13:25:26;513.75;;;478.02;;
53915;SDS011;39827;49.652;18.770;2023-06-04T13:27:53;520.55;;;483.52;;
53915;SDS011;39827;49.652;18.770;2023-06-04T13:30:19;563.22;;;520.65;;
53915;SDS011;39827;49.652;18.770;2023-06-04T13:32:44;525.08;;;487.33;;
53915;SDS011;39827;49.652;18.770;2023-06-04T13:35:10;577.35;;;532.75;;
53915;SDS011;39827;49.652;18.770;2023-06-04T13:37:35;572.65;;;528.40;;
53915;SDS011;39827;49.652;18.770;2023-06-04T13:40:00;570.42;;;526.58;;
53915;SDS011;39827;49.652;18.770;2023-06-04T13:42:26;537.70;;;495.58;;
53915;SDS011;39827;49.652;18.770;2023-06-04T13:44:51;522.85;;;482.45;;
53915;SDS011;39827;49.652;18.770;2023-06-04T13:47:17;566.10;;;522.38;;
53915;SDS011;39827;49.652;18.770;2023-06-04T13:49:43;573.08;;;529.03;;
53915;SDS011;39827;49.652;18.770;2023-06-04T13:52:08;558.80;;;515.35;;
53915;SDS011;39827;49.652;18.770;2023-06-04T13:54:34;569.58;;;524.95;;
53915;SDS011;39827;49.652;18.770;2023-06-04T13:57:02;565.13;;;521.00;;
53915;SDS011;39827;49.652;18.770;2023-06-04T13:59:32;588.45;;;542.80;;
53915;SDS011;39827;49.652;18.770;2023-06-04T14:01:57;572.55;;;527.45;;
53915;SDS011;39827;49.652;18.770;2023-06-04T14:04:23;534.95;;;493.13;;